Latest Weather Observations for Cape Flattery

IDQ60801

Issued at 9:02 am EST Wednesday 14 November 2018 (issued every 10 minutes, with the page automatically refreshed every 10 minutes)

About weather observations | Map of weather stations | Latest weather observations for QLD | Other Formats
Station Details ID: 031213 Name: CAPE FLATTERY Lat: -14.97 Lon: 145.31 Height: 18.5 m
Data from the previous 72 hours. | See also: Recent months at Cape Flattery
Date/Time
EST
Temp
°C
App
Temp
°C
Dew
Point
°C
Rel
Hum
%
Delta-T
°C
Wind Press
QNH
hPa
Press
MSL
hPa
Rain since
9am
mm
Dir  Spd
km/h
Gust
km/h
Spd
kts
Gust
kts
14/09:00am 29.4 26.4 16.9 47 7.8 ESE 28 39 15 21 1014.1 1014.0 0.0
14/08:30am 28.8 25.9 17.0 49 7.4 ESE 28 43 15 23 1014.0 1013.9 0.0
14/08:00am 28.1 25.3 18.2 55 6.3 ESE 30 39 16 21 1013.7 1013.6 0.0
14/07:30am 27.7 25.6 19.0 59 5.6 ESE 28 41 15 22 1013.4 1013.3 0.0
14/07:00am 27.1 25.4 18.9 61 5.3 ESE 26 35 14 19 1013.5 1013.4 0.0
14/06:30am 26.3 24.5 17.9 60 5.3 ESE 24 37 13 20 1012.9 1012.8 0.0
14/06:00am 25.4 24.2 18.3 65 4.5 ESE 22 30 12 16 1012.5 1012.4 0.0
14/05:30am 25.3 24.1 18.5 66 4.3 ESE 22 30 12 16 1012.4 1012.3 0.0
14/05:00am 25.3 24.2 18.7 67 4.2 ESE 22 30 12 16 1012.0 1011.9 0.0
14/04:30am 25.3 24.6 18.7 67 4.2 ESE 20 30 11 16 1011.8 1011.7 0.0
14/04:00am 25.4 24.3 18.6 66 4.3 ESE 22 32 12 17 1011.3 1011.2 0.0
14/03:30am 25.7 24.9 19.3 67 4.1 ESE 22 32 12 17 1011.0 1010.9 0.0
14/03:00am 25.5 24.8 19.6 70 3.8 ESE 22 32 12 17 1010.9 1010.8 0.0
14/02:30am 25.7 25.0 19.6 69 3.9 ESE 22 35 12 19 1011.1 1011.0 0.0
14/02:00am 25.5 24.8 18.7 66 4.3 ESE 20 32 11 17 1011.4 1011.3 0.0
14/01:30am 25.7 24.4 19.1 67 4.2 ESE 24 35 13 19 1011.5 1011.4 0.0
14/01:00am 25.8 24.9 19.9 70 3.8 ESE 24 35 13 19 1011.6 1011.5 0.0
14/12:30am 25.8 24.3 19.4 67 4.1 ESE 26 37 14 20 1011.6 1011.5 0.0
14/12:00am 25.9 24.7 19.3 67 4.2 ESE 24 35 13 19 1012.1 1012.0 0.0
 
Date/Time
EST
Temp
°C
App
Temp
°C
Dew
Point
°C
Rel
Hum
%
Delta-T
°C
Wind Press
QNH
hPa
Press
MSL
hPa
Rain since
9am
mm
Dir  Spd
km/h
Gust
km/h
Spd
kts
Gust
kts
13/11:30pm 25.7 24.8 19.8 70 3.8 ESE 24 32 13 17 1012.4 1012.3 0.0
13/11:00pm 25.7 23.9 19.6 69 3.9 ESE 28 37 15 20 1012.5 1012.4 0.0
13/10:30pm 25.8 23.3 19.7 69 3.9 ESE 32 48 17 26 1012.3 1012.2 0.0
13/10:21pm 25.7 23.3 19.1 67 4.2 ESE 30 48 16 26 1012.4 1012.3 0.0
13/10:00pm 25.9 23.0 19.3 67 4.2 ESE 33 43 18 23 1012.3 1012.2 0.0
13/09:30pm 25.9 23.4 19.8 69 4.0 ESE 32 43 17 23 1012.1 1012.0 0.0
13/09:00pm 26.1 23.6 19.7 68 4.1 ESE 32 44 17 24 1011.8 1011.7 0.0
13/08:30pm 25.9 23.9 19.1 66 4.4 ESE 28 39 15 21 1011.9 1011.8 0.0
13/08:00pm 26.0 24.8 20.1 70 3.8 ESE 26 39 14 21 1011.8 1011.7 0.0
13/07:30pm 25.9 23.7 19.5 68 4.1 ESE 30 37 16 20 1011.5 1011.4 0.0
13/07:00pm 25.9 23.4 18.8 65 4.5 ESE 30 41 16 22 1011.3 1011.2 0.0
13/06:30pm 26.2 23.6 18.6 63 4.8 ESE 30 41 16 22 1011.3 1011.2 0.0
13/06:00pm 26.7 23.9 19.1 63 4.9 SE 32 46 17 25 1011.2 1011.1 0.0
13/05:30pm 27.6 24.7 18.9 59 5.6 SE 32 43 17 23 1011.0 1010.9 0.0
13/05:00pm 28.1 24.9 18.2 55 6.3 SE 32 43 17 23 1011.0 1010.9 0.0
13/04:30pm 29.0 25.8 18.7 53 6.6 SE 33 44 18 24 1010.9 1010.8 0.0
13/04:00pm 29.1 25.6 18.8 53 6.7 SE 35 48 19 26 1010.8 1010.7 0.0
13/03:30pm 29.0 25.2 19.0 54 6.5 SE 37 46 20 25 1010.8 1010.7 0.0
13/03:00pm 29.5 25.2 18.6 52 7.0 SE 39 48 21 26 1010.9 1010.8 0.0
13/02:43pm 30.5 26.9 18.6 49 7.7 SE 35 54 19 29 1011.0 1010.9 0.0
13/02:30pm 30.9 27.6 19.3 50 7.6 SE 35 46 19 25 1011.0 1010.9 0.0
13/02:00pm 30.7 27.2 18.8 49 7.7 SE 35 44 19 24 1011.1 1011.0 0.0
13/01:30pm 30.1 26.0 18.2 49 7.6 SE 37 48 20 26 1011.4 1011.3 0.0
13/01:00pm 30.9 27.3 18.6 48 8.0 SE 35 48 19 26 1011.7 1011.6 0.0
13/12:30pm 30.2 26.1 18.3 49 7.6 SE 37 48 20 26 1012.0 1011.9 0.0
13/12:00pm 31.3 27.3 17.6 44 8.8 ESE 35 44 19 24 1012.6 1012.5 0.0
13/11:30am 31.1 27.2 17.8 45 8.5 SE 35 48 19 26 1013.1 1013.0 0.0
13/11:00am 30.0 26.2 18.1 49 7.6 SE 35 48 19 26 1013.3 1013.2 0.0
13/10:30am 30.9 27.8 18.9 48 7.8 SE 33 46 18 25 1013.4 1013.3 0.0
13/10:00am 29.8 26.5 18.3 50 7.4 SE 33 46 18 25 1013.7 1013.6 0.0
13/09:30am 29.7 26.9 19.4 54 6.7 SE 33 46 18 25 1013.8 1013.7 0.0
13/09:00am 29.8 27.2 19.8 55 6.6 SE 33 44 18 24 1013.7 1013.6 0.4
13/08:30am 28.8 25.8 19.1 55 6.3 SE 33 44 18 24 1013.6 1013.5 0.4
13/08:00am 28.4 26.0 19.9 60 5.6 ESE 32 43 17 23 1013.3 1013.2 0.4
13/07:30am 28.1 26.2 19.3 58 5.7 ESE 28 41 15 22 1013.2 1013.1 0.4
13/07:00am 27.0 24.2 19.4 63 4.9 SE 33 43 18 23 1013.0 1012.9 0.4
13/06:30am 26.6 25.5 20.2 68 4.2 ESE 26 43 14 23 1012.7 1012.6 0.4
13/06:00am 25.7 23.9 19.6 69 3.9 ESE 28 39 15 21 1012.3 1012.2 0.4
13/05:30am 25.8 24.5 20.6 73 3.4 ESE 28 37 15 20 1011.9 1011.8 0.4
13/05:00am 25.8 24.2 20.1 71 3.7 ESE 28 37 15 20 1011.8 1011.7 0.4
13/04:30am 25.8 24.2 20.1 71 3.7 SE 28 39 15 21 1011.8 1011.7 0.4
13/04:00am 26.0 24.8 20.8 73 3.4 ESE 28 37 15 20 1011.4 1011.3 0.4
13/03:30am 25.8 23.8 19.9 70 3.8 SE 30 39 16 21 1011.4 1011.3 0.4
13/03:00am 26.0 25.1 20.6 72 3.5 ESE 26 35 14 19 1011.4 1011.3 0.4
13/02:30am 26.1 25.6 20.7 72 3.5 ESE 24 32 13 17 1011.5 1011.4 0.4
13/02:00am 26.0 23.8 19.6 68 4.1 ESE 30 46 16 25 1011.8 1011.7 0.4
13/01:53am 26.1 24.6 20.2 70 3.8 ESE 28 46 15 25 1011.8 1011.7 0.4
13/01:30am 26.2 24.8 20.5 71 3.7 SE 28 39 15 21 1012.0 1011.9 0.4
13/01:00am 26.3 24.6 20.6 71 3.7 ESE 30 43 16 23 1012.1 1012.0 0.4
13/12:30am 26.3 24.5 20.4 70 3.9 SE 30 44 16 24 1012.4 1012.3 0.4
13/12:00am 26.3 25.5 20.8 71 3.6 SE 26 39 14 21 1012.8 1012.7 0.4
 
Date/Time
EST
Temp
°C
App
Temp
°C
Dew
Point
°C
Rel
Hum
%
Delta-T
°C
Wind Press
QNH
hPa
Press
MSL
hPa
Rain since
9am
mm
Dir  Spd
km/h
Gust
km/h
Spd
kts
Gust
kts
12/11:30pm 26.4 25.0 21.2 73 3.4 SE 30 41 16 22 1013.2 1013.1 0.4
12/11:00pm 26.4 25.2 20.9 72 3.6 SE 28 39 15 21 1013.4 1013.3 0.4
12/10:30pm 26.5 24.4 20.6 70 3.9 SE 32 41 17 22 1013.5 1013.4 0.4
12/10:00pm 26.5 24.3 20.8 71 3.8 SE 33 44 18 24 1013.2 1013.1 0.4
12/09:30pm 26.6 24.8 21.1 72 3.6 SE 32 46 17 25 1012.8 1012.7 0.4
12/09:00pm 26.5 24.9 20.8 71 3.8 SE 30 41 16 22 1012.6 1012.5 0.4
12/08:30pm 26.5 24.2 20.1 68 4.2 SE 32 44 17 24 1012.6 1012.5 0.4
12/08:00pm 26.6 25.2 21.1 72 3.6 SE 30 44 16 24 1012.5 1012.4 0.4
12/07:30pm 26.6 25.2 21.1 72 3.6 ESE 30 43 16 23 1012.2 1012.1 0.4
12/07:00pm 26.6 26.2 20.9 71 3.8 ESE 24 35 13 19 1012.1 1012.0 0.4
12/06:30pm 26.8 25.7 21.1 71 3.8 ESE 28 41 15 22 1011.9 1011.8 0.4
12/06:00pm 27.1 25.3 21.2 70 3.9 ESE 32 43 17 23 1011.6 1011.5 0.4
12/05:30pm 27.7 26.5 21.5 69 4.1 ESE 30 39 16 21 1011.6 1011.5 0.4
12/05:00pm 27.6 26.3 21.4 69 4.1 ESE 30 41 16 22 1011.3 1011.2 0.4
12/04:30pm 29.0 26.9 21.0 62 5.3 ESE 33 43 18 23 1011.0 1010.9 0.4
12/04:00pm 28.1 26.6 20.9 65 4.8 ESE 30 39 16 21 1011.1 1011.0 0.4
12/03:30pm 30.1 28.2 20.9 57 6.1 ESE 32 44 17 24 1011.1 1011.0 0.4
12/03:00pm 30.3 28.6 21.4 59 6.0 ESE 32 43 17 23 1011.3 1011.2 0.4
12/02:30pm 30.4 28.5 22.0 60 5.7 SE 35 46 19 25 1011.5 1011.4 0.4
12/02:00pm 30.7 28.4 21.2 57 6.4 SE 35 48 19 26 1011.6 1011.5 0.4
12/01:30pm 30.9 28.9 21.9 58 6.1 SE 35 46 19 25 1012.0 1011.9 0.4
12/01:00pm 30.6 29.1 21.7 59 6.0 SE 32 41 17 22 1012.5 1012.4 0.4
12/12:30pm 27.7 26.9 23.1 76 3.1 SE 32 39 17 21 1013.0 1012.9 0.2
12/12:00pm 30.9 29.0 21.4 57 6.4 SE 33 43 18 23 1013.4 1013.3 0.0
12/11:30am 31.1 29.0 21.0 55 6.8 SE 33 44 18 24 1013.7 1013.6 0.0
12/11:00am 31.4 29.6 21.6 56 6.6 SE 33 43 18 23 1013.8 1013.7 0.0
12/10:30am 31.1 29.2 21.0 55 6.8 ESE 32 43 17 23 1014.0 1013.9 0.0
12/10:00am 30.3 28.3 20.8 56 6.3 ESE 32 43 17 23 1014.1 1014.0 0.0
12/09:30am 30.3 28.5 21.1 58 6.2 ESE 32 44 17 24 1014.2 1014.1 0.0
12/09:00am 29.0 27.9 21.7 64 4.9 ESE 30 43 16 23 1014.2 1014.1 0.0
12/08:30am 29.9 29.1 21.6 61 5.6 SE 28 39 15 21 1014.0 1013.9 0.0
12/08:00am 28.2 26.2 20.0 61 5.4 ESE 30 41 16 22 1013.9 1013.8 0.0
12/07:30am 28.1 27.9 22.1 70 4.0 ESE 26 37 14 20 1013.6 1013.5 0.0
12/07:00am 27.2 26.7 21.5 71 3.8 ESE 26 35 14 19 1013.1 1013.0 0.0
12/06:30am 26.0 25.8 21.2 75 3.2 ESE 24 32 13 17 1012.8 1012.7 0.0
12/06:00am 26.2 25.8 21.6 76 3.1 SE 26 37 14 20 1012.2 1012.1 0.0
12/05:30am 26.3 25.8 21.5 75 3.2 ESE 26 37 14 20 1011.8 1011.7 0.0
12/05:00am 26.2 25.2 20.5 71 3.7 ESE 26 35 14 19 1011.8 1011.7 0.0
12/04:30am 26.4 26.2 21.2 73 3.4 ESE 24 35 13 19 1011.5 1011.4 0.0
12/04:00am 26.1 26.7 21.3 75 3.2 ESE 20 33 11 18 1011.3 1011.2 0.0
12/03:30am 26.0 25.4 21.2 75 3.2 ESE 26 37 14 20 1011.2 1011.1 0.0
12/03:00am 25.9 26.3 20.9 74 3.3 ESE 20 35 11 19 1011.3 1011.2 0.0
12/02:30am 26.0 25.4 20.6 72 3.5 ESE 24 35 13 19 1011.5 1011.4 0.0
12/02:00am 25.7 25.4 21.1 76 3.0 ESE 24 37 13 20 1011.7 1011.6 0.0
12/01:30am 25.8 25.3 20.8 74 3.3 ESE 24 33 13 18 1012.0 1011.9 0.0
12/01:00am 25.9 26.5 21.3 76 3.0 ESE 20 28 11 15 1012.2 1012.1 0.0
12/12:30am 25.8 25.7 21.5 77 2.9 ESE 24 33 13 18 1012.6 1012.5 0.0
12/12:00am 26.0 26.2 21.4 76 3.1 ESE 22 32 12 17 1012.8 1012.7 0.0
 
Date/Time
EST
Temp
°C
App
Temp
°C
Dew
Point
°C
Rel
Hum
%
Delta-T
°C
Wind Press
QNH
hPa
Press
MSL
hPa
Rain since
9am
mm
Dir  Spd
km/h
Gust
km/h
Spd
kts
Gust
kts
11/11:30pm 26.4 26.2 21.2 73 3.4 ESE 24 32 13 17 1013.0 1012.9 0.0
11/11:00pm 26.3 25.8 20.8 71 3.6 ESE 24 35 13 19 1013.3 1013.2 0.0
11/10:30pm 26.3 26.9 21.3 74 3.3 ESE 20 28 11 15 1013.5 1013.4 0.0
11/10:00pm 26.4 26.2 21.2 73 3.4 ESE 24 33 13 18 1013.6 1013.5 0.0
11/09:30pm 26.5 26.4 20.8 71 3.8 SE 22 32 12 17 1013.4 1013.3 0.0
11/09:00pm 26.6 26.1 20.7 70 3.9 SE 24 32 13 17 1013.0 1012.9 0.0
11/08:30pm 26.5 26.1 21.0 72 3.6 ESE 24 33 13 18 1012.7 1012.6 0.0
11/08:00pm 26.5 25.8 21.0 72 3.6 SE 26 35 14 19 1012.3 1012.2 0.0
11/07:30pm 26.6 26.7 21.1 72 3.6 SE 22 32 12 17 1012.1 1012.0 0.0
11/07:00pm 26.6 26.3 21.1 72 3.6 SE 24 32 13 17 1011.7 1011.6 0.0
11/06:30pm 26.7 25.8 21.5 73 3.5 ESE 28 37 15 20 1011.4 1011.3 0.0
11/06:00pm 27.0 26.6 21.7 73 3.5 ESE 26 35 14 19 1010.9 1010.8 0.0
11/05:30pm 27.8 28.0 22.1 71 3.8 ESE 24 37 13 20 1010.5 1010.4 0.0
11/05:00pm 28.3 27.6 21.8 68 4.4 ESE 28 39 15 21 1010.3 1010.2 0.0
11/04:30pm 28.0 27.0 21.3 67 4.5 ESE 28 39 15 21 1010.1 1010.0 0.0
11/04:00pm 28.3 26.9 21.1 65 4.8 SE 30 39 16 21 1010.0 1009.9 0.0
11/03:30pm 29.0 28.5 21.5 64 5.0 ESE 26 35 14 19 1010.2 1010.1 0.0
11/03:00pm 29.1 28.7 21.6 64 5.0 ESE 26 35 14 19 1010.1 1010.0 0.0
11/02:30pm 31.2 30.3 21.4 56 6.6 SE 28 39 15 21 1010.1 1010.0 0.0
11/02:00pm 31.1 30.0 21.0 55 6.8 SE 28 35 15 19 1010.2 1010.1 0.0
11/01:30pm 29.1 28.1 20.5 59 5.7 ESE 26 33 14 18 1010.9 1010.8 0.0
11/01:00pm 31.4 30.3 21.0 54 7.0 SE 28 37 15 20 1011.0 1010.9 0.0
11/12:30pm 31.7 30.8 21.5 54 6.9 SE 28 43 15 23 1011.4 1011.3 0.0
11/12:00pm 30.7 29.2 20.9 56 6.5 SE 30 37 16 20 1011.8 1011.7 0.0
11/11:30am 30.7 29.9 20.9 56 6.5 ESE 26 35 14 19 1012.0 1011.9 0.0
11/11:00am 30.4 30.0 20.9 57 6.3 ESE 24 37 13 20 1012.2 1012.1 0.0
11/10:30am 30.3 29.2 20.2 54 6.7 SE 26 35 14 19 1012.4 1012.3 0.0
11/10:00am 30.4 29.1 20.6 55 6.5 ESE 28 33 15 18 1012.7 1012.6 0.0
11/09:30am 30.3 30.2 21.4 59 6.0 SE 24 33 13 18 1012.8 1012.7 0.0

Other Formats:

Comma delimited format used in spreadsheet applications
http://www.bom.gov.au/fwo/IDQ60801/IDQ60801.94188.axf

JavaScript Object Notation format (JSON) in row-major order
http://www.bom.gov.au/fwo/IDQ60801/IDQ60801.94188.json